Time;durP1;ratioP1;P1;durP2;ratioP2;P2;SDS_P1;SDS_P2;PMS_P1;PMS_P2;Temp;Humidity;BMP_temperature;BMP_pressure;BME280_temperature;BME280_humidity;BME280_pressure;Samples;Min_cycle;Max_cycle;Signal;HPM_P1;HPM_P2
2024/01/23 00:00:12;;;;;;;3.53;1.20;;;;;;;6.10;100.00;100884.84;4963252;28;20225;-70
2024/01/23 00:02:38;;;;;;;5.43;1.17;;;;;;;5.93;100.00;100882.41;4968840;28;20319;-71
2024/01/23 00:05:05;;;;;;;3.37;1.20;;;;;;;5.76;100.00;100900.94;4969817;28;20211;-72
2024/01/23 00:07:31;;;;;;;7.43;1.30;;;;;;;5.63;100.00;100886.44;4971491;28;20210;-71
2024/01/23 00:09:58;;;;;;;5.20;1.17;;;;;;;5.56;100.00;100882.63;4972821;28;20225;-71
2024/01/23 00:12:25;;;;;;;4.23;1.30;;;;;;;5.54;100.00;100872.88;4970498;28;20252;-71
2024/01/23 00:14:52;;;;;;;7.03;1.70;;;;;;;5.57;100.00;100884.41;4968070;28;20686;-71
2024/01/23 00:17:18;;;;;;;5.30;1.50;;;;;;;5.55;100.00;100879.94;4966000;28;20229;-72
2024/01/23 00:19:51;;;;;;;5.97;1.83;;;;;;;5.61;100.00;100878.47;4972919;28;20203;-69
2024/01/23 00:22:18;;;;;;;9.87;1.80;;;;;;;5.54;100.00;100868.53;4972863;28;20236;-71
2024/01/23 00:24:44;;;;;;;3.63;1.30;;;;;;;5.51;100.00;100862.25;4972636;28;20567;-71
2024/01/23 00:27:11;;;;;;;7.53;1.80;;;;;;;5.38;100.00;100860.88;4971027;28;20209;-71
2024/01/23 00:29:37;;;;;;;6.47;1.60;;;;;;;5.35;100.00;100865.97;4970730;28;20204;-68
2024/01/23 00:32:05;;;;;;;3.90;1.50;;;;;;;5.36;100.00;100867.78;4967616;28;20619;-71
2024/01/23 00:34:31;;;;;;;7.43;1.50;;;;;;;5.28;100.00;100874.44;4965437;28;20236;-72
2024/01/23 00:36:58;;;;;;;5.53;1.40;;;;;;;5.19;100.00;100872.31;4972944;28;20245;-71
2024/01/23 00:39:25;;;;;;;6.00;1.20;;;;;;;5.12;100.00;100861.47;4969977;28;20211;-72
2024/01/23 00:41:51;;;;;;;8.20;1.80;;;;;;;5.08;100.00;100873.59;4963727;28;20215;-72
2024/01/23 00:44:17;;;;;;;5.67;1.60;;;;;;;5.04;100.00;100880.44;4959376;28;20298;-71
2024/01/23 00:46:44;;;;;;;5.03;1.30;;;;;;;4.93;100.00;100886.94;4970828;28;20347;-71
2024/01/23 00:49:12;;;;;;;6.30;1.50;;;;;;;4.86;100.00;100881.38;4967299;28;20212;-71
2024/01/23 00:51:38;;;;;;;4.47;1.40;;;;;;;4.81;100.00;100894.28;4964449;28;20649;-69
2024/01/23 00:54:05;;;;;;;7.80;1.70;;;;;;;4.73;100.00;100911.38;4969898;28;20206;-70
2024/01/23 00:56:31;;;;;;;8.83;2.00;;;;;;;4.69;100.00;100912.97;4969296;28;20285;-71
2024/01/23 00:58:58;;;;;;;3.57;1.47;;;;;;;4.75;100.00;100919.31;4972132;28;20207;-71
2024/01/23 01:01:24;;;;;;;9.63;1.60;;;;;;;4.86;100.00;100931.22;4969686;28;20222;-73
2024/01/23 01:03:50;;;;;;;5.17;1.60;;;;;;;4.86;100.00;100925.97;4970829;28;20276;-71
2024/01/23 01:06:17;;;;;;;4.87;1.30;;;;;;;4.75;100.00;100929.81;4971217;28;20202;-71
2024/01/23 01:08:46;;;;;;;7.27;1.77;;;;;;;4.76;100.00;100939.50;4972216;28;20230;-71
2024/01/23 01:11:12;;;;;;;13.17;1.33;;;;;;;4.88;100.00;100940.97;4962551;28;20215;-71
2024/01/23 01:13:38;;;;;;;5.57;1.57;;;;;;;4.85;100.00;100943.44;4971190;28;20400;-72
2024/01/23 01:16:05;;;;;;;4.70;1.30;;;;;;;4.78;100.00;100953.56;4965547;28;20239;-72
2024/01/23 01:18:36;;;;;;;3.90;1.10;;;;;;;4.68;100.00;100947.91;4969927;28;20592;-72
2024/01/23 01:21:07;;;;;;;2.80;1.37;;;;;;;4.83;100.00;100959.97;4968172;28;20204;-68
2024/01/23 01:23:34;;;;;;;4.50;1.30;;;;;;;4.84;100.00;100972.25;4966493;28;20210;-70
2024/01/23 01:26:01;;;;;;;8.37;1.30;;;;;;;4.85;100.00;100967.06;4964001;28;20202;-71
2024/01/23 01:28:28;;;;;;;8.27;1.53;;;;;;;4.93;100.00;100976.19;4968206;28;20218;-71
2024/01/23 01:30:54;;;;;;;9.87;1.57;;;;;;;4.82;100.00;100966.94;4970451;28;20716;-71
2024/01/23 01:33:21;;;;;;;7.97;1.77;;;;;;;4.86;100.00;100974.13;4971782;28;20210;-71
2024/01/23 01:35:51;;;;;;;6.50;1.00;;;;;;;4.81;100.00;100974.72;4968119;28;20622;-71
2024/01/23 01:38:17;;;;;;;3.07;1.10;;;;;;;4.68;100.00;100968.00;4965977;28;20220;-70
2024/01/23 01:40:44;;;;;;;7.17;1.50;;;;;;;4.55;100.00;100970.91;4964802;28;20204;-70
2024/01/23 01:43:27;;;;;;;5.60;1.10;;;;;;;4.58;100.00;100969.31;4971427;28;20218;-70
2024/01/23 01:46:10;;;;;;;4.47;1.23;;;;;;;4.68;100.00;100963.66;4971243;28;20345;-70
2024/01/23 01:48:38;;;;;;;5.07;1.30;;;;;;;4.71;100.00;100955.03;4969416;28;20209;-69
2024/01/23 01:51:05;;;;;;;4.40;1.63;;;;;;;4.61;100.00;100953.72;4965127;28;20783;-71
2024/01/23 01:53:33;;;;;;;4.40;2.13;;;;;;;4.72;100.00;100948.94;4969631;28;20201;-69
2024/01/23 01:56:02;;;;;;;9.57;1.30;;;;;;;4.63;100.00;100965.16;4970233;28;20205;-70
2024/01/23 01:58:30;;;;;;;4.07;1.20;;;;;;;4.52;100.00;100978.63;4961090;28;20297;-70
2024/01/23 02:00:59;;;;;;;4.60;1.10;;;;;;;4.56;100.00;100980.56;4969554;28;20240;-71
2024/01/23 02:03:27;;;;;;;2.37;1.00;;;;;;;4.45;100.00;100984.41;4970070;28;20206;-71
2024/01/23 02:05:56;;;;;;;3.53;1.40;;;;;;;4.24;100.00;100982.53;4967342;28;20202;-71
2024/01/23 02:08:23;;;;;;;3.63;1.20;;;;;;;4.21;100.00;100976.25;4971301;28;20283;-71
2024/01/23 02:10:50;;;;;;;7.23;1.43;;;;;;;4.24;100.00;100972.06;4970122;28;20253;-72
2024/01/23 02:13:16;;;;;;;4.80;1.20;;;;;;;4.51;100.00;100980.34;4975021;28;20770;-71
2024/01/23 02:15:43;;;;;;;4.07;1.10;;;;;;;4.50;100.00;100978.56;4961826;28;20213;-71
2024/01/23 02:18:09;;;;;;;6.83;1.00;;;;;;;4.48;100.00;101002.91;4970752;28;20204;-69
2024/01/23 02:20:36;;;;;;;5.00;1.40;;;;;;;4.52;100.00;101004.84;4967646;28;20257;-70
2024/01/23 02:23:02;;;;;;;1.70;1.07;;;;;;;4.46;100.00;100991.44;4968864;28;20713;-71
2024/01/23 02:25:29;;;;;;;5.10;1.07;;;;;;;4.35;100.00;101002.31;4970470;28;20697;-71
2024/01/23 02:27:57;;;;;;;6.93;1.57;;;;;;;4.39;100.00;100999.00;4968182;28;20205;-70
2024/01/23 02:30:24;;;;;;;4.27;1.17;;;;;;;4.45;100.00;101015.88;4967681;28;20212;-71
2024/01/23 02:32:50;;;;;;;6.43;1.20;;;;;;;4.47;100.00;101023.00;4964565;28;20257;-71
2024/01/23 02:35:16;;;;;;;1.63;0.90;;;;;;;4.47;100.00;101020.38;4969759;28;20202;-70
2024/01/23 02:37:43;;;;;;;7.43;1.30;;;;;;;4.40;100.00;101016.56;4970370;28;20229;-70
2024/01/23 02:40:10;;;;;;;7.40;1.60;;;;;;;4.58;100.00;101027.00;4969194;28;20293;-72
2024/01/23 02:42:36;;;;;;;5.93;1.63;;;;;;;4.62;100.00;101009.69;4965096;28;20640;-69
2024/01/23 02:45:03;;;;;;;5.00;1.63;;;;;;;4.65;100.00;101022.94;4965260;28;20203;-71
2024/01/23 02:47:29;;;;;;;3.43;1.30;;;;;;;4.77;100.00;101028.75;4969668;28;20581;-70
2024/01/23 02:49:55;;;;;;;4.33;1.30;;;;;;;4.88;100.00;101035.44;4967072;28;20579;-70
2024/01/23 02:52:22;;;;;;;7.43;1.30;;;;;;;4.93;100.00;101033.91;4962834;28;20707;-71
2024/01/23 02:54:49;;;;;;;8.77;1.20;;;;;;;4.99;100.00;101030.66;4962405;28;20667;-69
2024/01/23 02:57:15;;;;;;;8.87;1.40;;;;;;;5.03;100.00;101044.00;4960279;28;20696;-71
2024/01/23 02:59:44;;;;;;;7.87;1.30;;;;;;;4.94;100.00;101056.72;4965227;28;20206;-71
2024/01/23 03:02:11;;;;;;;5.37;1.57;;;;;;;4.83;100.00;101063.19;4969004;28;20216;-71
2024/01/23 03:04:37;;;;;;;4.43;1.20;;;;;;;4.72;100.00;101061.75;4969802;28;20261;-71
2024/01/23 03:07:04;;;;;;;3.10;1.27;;;;;;;4.57;100.00;101067.19;4962930;28;20205;-70
2024/01/23 03:09:30;;;;;;;7.00;1.30;;;;;;;4.45;100.00;101070.94;4965386;28;20212;-71
2024/01/23 03:11:57;;;;;;;4.17;1.10;;;;;;;4.59;100.00;101072.50;4966068;28;20221;-71
2024/01/23 03:14:23;;;;;;;6.87;1.27;;;;;;;4.79;100.00;101070.81;4971924;28;20213;-71
2024/01/23 03:16:49;;;;;;;3.43;1.30;;;;;;;4.74;100.00;101057.47;4961984;28;20689;-70
2024/01/23 03:19:16;;;;;;;2.57;0.80;;;;;;;4.96;100.00;101070.81;4970468;28;20208;-70
2024/01/23 03:21:42;;;;;;;1.60;0.70;;;;;;;4.91;100.00;101056.56;4969359;28;20222;-71
2024/01/23 03:24:09;;;;;;;4.77;0.77;;;;;;;4.76;100.00;101065.44;4965290;28;20284;-71
2024/01/23 03:26:35;;;;;;;3.80;1.00;;;;;;;4.70;100.00;101079.16;4966974;28;20216;-71
2024/01/23 03:29:02;;;;;;;2.70;0.90;;;;;;;4.82;100.00;101066.66;4970115;28;20213;-70
2024/01/23 03:31:29;;;;;;;8.00;1.00;;;;;;;4.92;100.00;101074.13;4967332;28;20225;-71
2024/01/23 03:33:55;;;;;;;0.90;0.60;;;;;;;4.88;100.00;101059.06;4965921;28;20221;-70
2024/01/23 03:36:21;;;;;;;3.23;1.03;;;;;;;4.92;100.00;101084.63;4963055;28;20214;-69
2024/01/23 03:38:48;;;;;;;1.83;0.80;;;;;;;5.08;100.00;101112.47;4969016;28;20237;-71
2024/01/23 03:41:15;;;;;;;3.40;0.90;;;;;;;5.08;100.00;101095.81;4969754;28;20297;-72
2024/01/23 03:43:45;;;;;;;2.63;0.83;;;;;;;4.97;100.00;101111.97;4970070;28;20205;-70
2024/01/23 03:46:12;;;;;;;3.37;0.83;;;;;;;4.76;100.00;101124.03;4971794;28;20646;-70
2024/01/23 03:48:38;;;;;;;1.80;0.80;;;;;;;4.60;100.00;101124.13;4967609;28;20219;-70
2024/01/23 03:51:05;;;;;;;2.47;1.07;;;;;;;4.43;100.00;101130.28;4972628;28;20253;-69
2024/01/23 03:53:31;;;;;;;1.83;0.90;;;;;;;4.27;100.00;101123.38;4969222;28;20232;-71
2024/01/23 03:55:58;;;;;;;2.97;0.97;;;;;;;4.17;100.00;101131.59;4972558;28;20233;-70
2024/01/23 03:58:24;;;;;;;1.80;0.80;;;;;;;3.97;100.00;101141.03;4973037;28;20582;-70
2024/01/23 04:00:51;;;;;;;2.13;0.80;;;;;;;3.92;100.00;101134.66;4971038;28;20745;-70
2024/01/23 04:03:17;;;;;;;2.43;0.70;;;;;;;3.77;100.00;101151.41;4971400;28;20589;-72
2024/01/23 04:05:44;;;;;;;1.77;0.80;;;;;;;3.68;100.00;101161.41;4963417;28;20668;-70
2024/01/23 04:08:10;;;;;;;2.63;0.80;;;;;;;3.71;100.00;101156.31;4968784;28;20204;-71
2024/01/23 04:10:37;;;;;;;1.83;0.73;;;;;;;3.59;100.00;101163.50;4970726;28;20209;-70
2024/01/23 04:13:03;;;;;;;1.17;0.70;;;;;;;3.55;100.00;101176.34;4978280;28;20308;-70
2024/01/23 04:15:29;;;;;;;3.63;0.97;;;;;;;3.62;100.00;101197.75;4973368;28;20281;-71
2024/01/23 04:17:56;;;;;;;3.20;1.20;;;;;;;3.81;100.00;101196.09;4970787;28;20669;-70
2024/01/23 04:20:22;;;;;;;1.97;0.80;;;;;;;3.74;100.00;101205.34;4972577;28;20213;-71
2024/01/23 04:22:49;;;;;;;4.63;0.77;;;;;;;3.65;100.00;101212.72;4965539;28;20225;-70
2024/01/23 04:25:16;;;;;;;2.63;1.23;;;;;;;3.47;100.00;101202.13;4967197;28;20292;-69
2024/01/23 04:27:42;;;;;;;6.10;1.10;;;;;;;3.39;100.00;101217.41;4972220;28;20209;-70
2024/01/23 04:30:09;;;;;;;3.40;0.80;;;;;;;3.32;100.00;101217.91;4965767;28;20209;-71
2024/01/23 04:32:36;;;;;;;2.07;0.80;;;;;;;3.37;100.00;101215.53;4971762;28;20370;-70
2024/01/23 04:35:02;;;;;;;2.50;1.00;;;;;;;3.27;100.00;101223.69;4971303;28;20201;-71
2024/01/23 04:37:29;;;;;;;3.83;1.10;;;;;;;3.18;100.00;101224.06;4968640;28;20659;-70
2024/01/23 04:39:55;;;;;;;3.80;1.20;;;;;;;3.07;100.00;101231.31;4972248;28;20197;-71
2024/01/23 04:42:22;;;;;;;5.60;1.20;;;;;;;3.00;100.00;101244.88;4971923;28;20745;-70
2024/01/23 04:44:48;;;;;;;5.67;1.00;;;;;;;3.10;100.00;101241.06;4967044;28;20201;-70
2024/01/23 04:47:14;;;;;;;2.80;1.20;;;;;;;3.07;100.00;101254.88;4965450;28;20197;-70
2024/01/23 04:49:41;;;;;;;4.33;0.90;;;;;;;2.98;100.00;101254.34;4966344;28;20236;-68
2024/01/23 04:52:08;;;;;;;3.70;1.23;;;;;;;3.12;100.00;101256.03;4971190;28;20226;-69
2024/01/23 04:54:34;;;;;;;4.13;1.07;;;;;;;2.96;100.00;101250.75;4969550;28;20205;-69
2024/01/23 04:57:02;;;;;;;7.33;1.20;;;;;;;3.06;100.00;101260.00;4961335;28;20209;-71
2024/01/23 04:59:29;;;;;;;2.83;0.80;;;;;;;3.20;100.00;101266.91;4966908;28;20213;-69
2024/01/23 05:01:55;;;;;;;3.20;1.23;;;;;;;3.02;100.00;101265.88;4970741;28;20249;-71
2024/01/23 05:04:21;;;;;;;4.87;1.10;;;;;;;2.92;100.00;101287.09;4971572;28;20296;-70
2024/01/23 05:06:48;;;;;;;5.63;1.60;;;;;;;2.91;100.00;101283.59;4968169;28;20308;-70
2024/01/23 05:09:15;;;;;;;6.00;1.20;;;;;;;2.79;100.00;101283.75;4969355;28;20817;-70
2024/01/23 05:11:41;;;;;;;2.97;1.13;;;;;;;2.67;100.00;101280.41;4970974;28;20255;-70
2024/01/23 05:14:07;;;;;;;3.47;1.10;;;;;;;2.52;100.00;101282.13;4971888;28;20610;-70
2024/01/23 05:16:35;;;;;;;2.77;1.00;;;;;;;2.47;100.00;101301.88;4968110;28;20212;-70
2024/01/23 05:19:01;;;;;;;3.23;1.00;;;;;;;2.38;100.00;101320.50;4969052;28;20733;-70
2024/01/23 05:21:28;;;;;;;5.13;1.40;;;;;;;2.36;100.00;101327.34;4969114;28;20675;-71
2024/01/23 05:23:54;;;;;;;4.10;1.20;;;;;;;2.30;100.00;101316.53;4961910;28;20293;-70
2024/01/23 05:26:21;;;;;;;7.53;1.27;;;;;;;2.40;100.00;101318.91;4968529;28;20212;-71
2024/01/23 05:28:47;;;;;;;5.37;1.47;;;;;;;2.41;100.00;101311.97;4971111;28;20204;-71
2024/01/23 05:31:14;;;;;;;7.50;1.93;;;;;;;2.43;100.00;101326.94;4969622;28;20201;-71
2024/01/23 05:33:40;;;;;;;8.10;1.83;;;;;;;2.47;100.00;101322.78;4966052;28;20208;-71
2024/01/23 05:36:12;;;;;;;5.43;1.60;;;;;;;2.42;100.00;101325.13;4968047;28;20296;-70
2024/01/23 05:38:39;;;;;;;5.47;1.77;;;;;;;2.42;100.00;101338.22;4969425;28;20205;-70
2024/01/23 05:41:05;;;;;;;5.37;1.50;;;;;;;2.34;100.00;101344.66;4967284;28;20202;-70
2024/01/23 05:43:32;;;;;;;10.27;1.50;;;;;;;2.33;100.00;101347.16;4970080;28;20243;-71
2024/01/23 05:45:58;;;;;;;3.33;1.20;;;;;;;2.42;100.00;101346.03;4966410;28;20215;-70
2024/01/23 05:48:24;;;;;;;3.67;1.20;;;;;;;2.43;100.00;101360.03;4969392;28;20593;-70
2024/01/23 05:50:51;;;;;;;5.73;2.07;;;;;;;2.45;100.00;101351.47;4970481;28;20211;-68
2024/01/23 05:53:17;;;;;;;3.00;1.30;;;;;;;2.41;100.00;101365.16;4970285;28;20225;-71
2024/01/23 05:55:44;;;;;;;6.13;1.50;;;;;;;2.37;100.00;101375.28;4963879;28;20288;-70
2024/01/23 05:58:10;;;;;;;7.77;1.20;;;;;;;2.34;100.00;101369.88;4969641;28;20206;-71
2024/01/23 06:00:37;;;;;;;4.07;1.53;;;;;;;2.29;100.00;101387.00;4970553;28;20209;-71
2024/01/23 06:03:04;;;;;;;7.57;1.43;;;;;;;2.23;100.00;101390.13;4970025;28;20227;-70
2024/01/23 06:05:31;;;;;;;7.13;1.67;;;;;;;2.21;100.00;101407.44;4966801;28;20291;-69
2024/01/23 06:07:57;;;;;;;11.30;1.83;;;;;;;2.20;100.00;101409.13;4961418;28;20645;-69
2024/01/23 06:10:23;;;;;;;8.57;1.70;;;;;;;2.22;100.00;101414.47;4970426;28;20204;-69
2024/01/23 06:12:50;;;;;;;3.30;1.30;;;;;;;2.17;100.00;101436.78;4963311;28;20316;-70
2024/01/23 06:15:16;;;;;;;5.20;2.00;;;;;;;2.35;100.00;101432.69;4965259;28;20241;-71
2024/01/23 06:17:43;;;;;;;6.50;1.50;;;;;;;2.42;100.00;101432.31;4963754;28;20239;-70
2024/01/23 06:20:12;;;;;;;7.70;1.47;;;;;;;2.43;100.00;101434.13;4964253;28;20212;-70
2024/01/23 06:22:40;;;;;;;5.30;1.30;;;;;;;2.38;100.00;101439.84;4959896;28;20229;-70
2024/01/23 06:25:08;;;;;;;5.37;1.33;;;;;;;2.39;100.00;101458.22;4959624;28;20205;-70
2024/01/23 06:27:35;;;;;;;4.53;1.50;;;;;;;2.42;100.00;101450.59;4965086;28;20668;-72
2024/01/23 06:30:02;;;;;;;3.47;1.30;;;;;;;2.73;100.00;101460.34;4963322;28;20291;-70
2024/01/23 06:32:30;;;;;;;6.93;1.77;;;;;;;2.72;100.00;101471.59;4964306;28;20232;-70
2024/01/23 06:34:57;;;;;;;11.27;1.57;;;;;;;2.79;100.00;101474.69;4960279;28;20215;-71
2024/01/23 06:37:23;;;;;;;10.83;2.10;;;;;;;2.87;100.00;101475.19;4961993;28;20286;-71
2024/01/23 06:39:49;;;;;;;7.33;1.77;;;;;;;2.94;100.00;101482.59;4961346;28;20201;-70
2024/01/23 06:42:19;;;;;;;7.87;2.30;;;;;;;2.97;100.00;101480.16;4964759;28;20225;-70
2024/01/23 06:44:46;;;;;;;10.60;1.57;;;;;;;3.06;100.00;101485.94;4958651;28;20223;-70
2024/01/23 06:47:12;;;;;;;3.33;1.10;;;;;;;3.27;100.00;101496.84;4962830;28;20220;-71
2024/01/23 06:49:38;;;;;;;5.40;2.03;;;;;;;3.22;100.00;101502.59;4960779;28;20288;-69
2024/01/23 06:52:05;;;;;;;3.33;1.40;;;;;;;3.04;100.00;101505.88;4940486;28;20228;-68
2024/01/23 06:54:31;;;;;;;11.17;1.50;;;;;;;2.95;100.00;101513.19;4960891;28;20215;-69
2024/01/23 06:57:00;;;;;;;5.90;1.80;;;;;;;3.17;100.00;101514.47;4954622;28;20507;-69
2024/01/23 06:59:27;;;;;;;6.80;1.87;;;;;;;3.14;100.00;101508.25;4962980;28;20218;-69
2024/01/23 07:01:54;;;;;;;6.53;1.73;;;;;;;3.22;100.00;101521.84;4953380;28;20254;-69
2024/01/23 07:04:20;;;;;;;8.97;1.77;;;;;;;3.15;100.00;101527.47;4959944;28;20237;-68
2024/01/23 07:06:47;;;;;;;10.60;2.10;;;;;;;3.01;100.00;101521.41;4958825;28;20312;-67
2024/01/23 07:09:13;;;;;;;9.47;1.90;;;;;;;2.94;100.00;101523.56;4959371;28;20204;-71
2024/01/23 07:11:41;;;;;;;7.13;1.50;;;;;;;2.87;100.00;101535.34;4958969;28;21661;-67
2024/01/23 07:14:07;;;;;;;6.27;1.83;;;;;;;2.85;100.00;101536.06;4947068;28;20202;-67
2024/01/23 07:16:34;;;;;;;8.47;2.07;;;;;;;2.95;100.00;101546.28;4962498;28;20216;-69
2024/01/23 07:19:01;;;;;;;7.97;1.63;;;;;;;2.94;100.00;101550.63;4955416;28;20217;-70
2024/01/23 07:21:27;;;;;;;9.27;1.60;;;;;;;2.99;100.00;101559.66;4967324;28;20240;-69
2024/01/23 07:23:54;;;;;;;6.20;2.00;;;;;;;3.02;100.00;101559.84;4944399;28;20974;-69
2024/01/23 07:26:20;;;;;;;12.80;2.20;;;;;;;3.14;100.00;101555.38;4966219;28;20583;-70
2024/01/23 07:28:47;;;;;;;8.87;2.03;;;;;;;3.06;100.00;101571.41;4965738;28;20977;-69
2024/01/23 07:31:27;;;;;;;8.80;1.90;;;;;;;3.03;100.00;101577.34;4966015;28;20279;-68
2024/01/23 07:33:53;;;;;;;10.13;1.97;;;;;;;2.96;100.00;101579.50;4966772;28;20754;-67
2024/01/23 07:36:20;;;;;;;10.17;1.67;;;;;;;2.95;100.00;101582.94;4966073;28;20335;-68
2024/01/23 07:38:46;;;;;;;8.37;1.77;;;;;;;2.97;100.00;101597.91;4963051;28;20205;-68
2024/01/23 07:41:13;;;;;;;7.03;1.60;;;;;;;2.95;100.00;101609.09;4965747;28;20459;-68
2024/01/23 07:43:39;;;;;;;8.13;2.03;;;;;;;3.00;100.00;101608.56;4966567;28;20201;-67
2024/01/23 07:46:06;;;;;;;9.77;1.60;;;;;;;3.00;100.00;101612.91;4973387;28;20202;-65
2024/01/23 07:48:32;;;;;;;5.20;1.50;;;;;;;3.12;100.00;101630.25;4968919;28;20292;-66
2024/01/23 07:50:59;;;;;;;6.00;2.10;;;;;;;3.14;100.00;101632.97;4966081;28;20644;-68
2024/01/23 07:53:25;;;;;;;6.83;2.10;;;;;;;3.22;100.00;101633.47;4967021;28;20248;-68
2024/01/23 07:55:52;;;;;;;9.53;1.70;;;;;;;3.27;100.00;101630.34;4965334;28;20208;-68
2024/01/23 07:58:18;;;;;;;6.37;1.70;;;;;;;3.27;100.00;101639.91;4963083;28;20835;-68
2024/01/23 08:00:45;;;;;;;6.47;2.00;;;;;;;3.32;100.00;101628.00;4966137;28;20208;-69
2024/01/23 08:03:11;;;;;;;8.10;2.00;;;;;;;3.36;100.00;101628.28;4965771;28;20249;-68
2024/01/23 08:05:38;;;;;;;11.00;1.70;;;;;;;3.50;100.00;101633.47;4965377;28;20201;-70
2024/01/23 08:08:05;;;;;;;9.83;2.17;;;;;;;3.68;100.00;101626.75;4967472;28;20420;-68
2024/01/23 08:10:34;;;;;;;4.27;1.50;;;;;;;3.81;100.00;101631.00;4965816;28;20206;-67
2024/01/23 08:13:00;;;;;;;9.77;1.70;;;;;;;3.83;100.00;101624.13;4963741;28;20678;-67
2024/01/23 08:15:26;;;;;;;5.83;1.60;;;;;;;3.92;100.00;101630.81;4964886;28;20556;-69
2024/01/23 08:17:53;;;;;;;6.30;1.60;;;;;;;4.01;100.00;101631.41;4970828;28;20702;-69
2024/01/23 08:20:19;;;;;;;11.00;1.90;;;;;;;4.09;100.00;101631.84;4971946;28;20304;-66
2024/01/23 08:22:46;;;;;;;7.17;1.50;;;;;;;4.19;100.00;101615.84;4974166;28;20222;-66
2024/01/23 08:25:13;;;;;;;3.90;1.67;;;;;;;4.24;100.00;101624.88;4964741;28;20749;-69
2024/01/23 08:27:39;;;;;;;8.43;2.10;;;;;;;4.23;100.00;101620.44;4960387;28;20205;-72
2024/01/23 08:30:08;;;;;;;5.37;1.80;;;;;;;4.36;100.00;101633.44;4967000;28;20200;-69
2024/01/23 08:32:37;;;;;;;7.53;1.93;;;;;;;4.26;100.00;101640.69;4966062;28;20255;-72
2024/01/23 08:35:06;;;;;;;10.73;1.80;;;;;;;4.19;100.00;101647.28;4968212;28;20210;-73
2024/01/23 08:37:32;;;;;;;8.33;1.90;;;;;;;4.14;100.00;101648.75;4970890;28;20211;-68
2024/01/23 08:39:59;;;;;;;11.40;2.13;;;;;;;3.98;100.00;101651.25;4969267;28;20213;-69
2024/01/23 08:42:25;;;;;;;6.27;1.60;;;;;;;3.95;100.00;101645.81;4971091;28;20230;-69
2024/01/23 08:44:54;;;;;;;7.80;1.37;;;;;;;3.99;100.00;101653.06;4965306;28;20202;-70
2024/01/23 08:47:20;;;;;;;6.23;2.00;;;;;;;3.93;100.00;101657.94;4966700;28;20765;-69
2024/01/23 08:49:46;;;;;;;4.37;1.30;;;;;;;3.76;100.00;101651.69;4948325;28;20205;-70
2024/01/23 08:52:13;;;;;;;8.13;2.00;;;;;;;3.86;100.00;101679.34;4967897;28;20231;-69
2024/01/23 08:54:39;;;;;;;5.20;1.63;;;;;;;4.01;100.00;101675.97;4961331;28;20298;-68
2024/01/23 08:57:06;;;;;;;12.03;2.20;;;;;;;4.07;100.00;101676.31;4968582;28;20221;-68
2024/01/23 08:59:32;;;;;;;7.00;2.20;;;;;;;4.11;100.00;101682.66;4966181;28;20215;-67
2024/01/23 09:01:59;;;;;;;8.37;2.10;;;;;;;4.24;100.00;101697.38;4965950;28;20256;-66
2024/01/23 09:04:25;;;;;;;6.43;1.83;;;;;;;4.50;100.00;101696.31;4963095;28;20219;-67
2024/01/23 09:06:52;;;;;;;10.87;2.17;;;;;;;4.51;100.00;101693.78;4967223;28;20579;-71
2024/01/23 09:09:18;;;;;;;8.40;2.00;;;;;;;4.65;100.00;101707.69;4963211;28;20210;-71
2024/01/23 09:11:46;;;;;;;8.73;1.73;;;;;;;4.75;100.00;101707.41;4947592;28;20241;-67
2024/01/23 09:14:13;;;;;;;10.73;2.67;;;;;;;4.81;100.00;101705.16;4968919;28;20703;-72
2024/01/23 09:16:39;;;;;;;6.40;1.63;;;;;;;5.14;100.00;101711.38;4971873;28;20292;-67
2024/01/23 09:19:05;;;;;;;13.37;1.80;;;;;;;5.21;100.00;101710.94;4967710;28;20335;-69
2024/01/23 09:21:32;;;;;;;9.50;2.70;;;;;;;5.41;100.00;101706.78;4964267;28;20564;-70
2024/01/23 09:24:00;;;;;;;7.17;1.60;;;;;;;5.52;100.00;101710.00;4971993;28;20199;-71
2024/01/23 09:26:26;;;;;;;7.23;1.70;;;;;;;5.73;100.00;101716.44;4963659;28;20214;-72
2024/01/23 09:28:53;;;;;;;8.70;2.27;;;;;;;5.80;100.00;101715.94;4971736;28;20210;-71
2024/01/23 09:31:21;;;;;;;10.20;2.07;;;;;;;5.90;100.00;101727.88;4971685;28;20232;-69
2024/01/23 09:33:47;;;;;;;6.60;1.60;;;;;;;6.04;100.00;101716.38;4970968;28;20225;-68
2024/01/23 09:36:14;;;;;;;6.90;1.43;;;;;;;6.21;100.00;101723.41;4963797;28;20216;-68
2024/01/23 09:38:40;;;;;;;5.33;1.57;;;;;;;6.31;100.00;101724.78;4964357;28;20210;-70
2024/01/23 09:41:12;;;;;;;7.03;1.63;;;;;;;6.44;100.00;101739.50;4970667;28;20557;-70
2024/01/23 09:43:44;;;;;;;19.37;2.83;;;;;;;6.62;100.00;101731.63;4960443;28;20264;-71
2024/01/23 09:46:13;;;;;;;12.37;2.27;;;;;;;6.72;100.00;101737.44;4965152;28;20209;-68
2024/01/23 09:48:40;;;;;;;12.93;1.70;;;;;;;6.87;100.00;101740.84;4976392;28;20205;-70
2024/01/23 09:51:12;;;;;;;8.47;1.70;;;;;;;7.01;100.00;101740.63;4970274;28;20202;-69
2024/01/23 09:53:41;;;;;;;9.37;1.70;;;;;;;7.08;100.00;101756.78;4964997;28;20313;-69
2024/01/23 09:56:08;;;;;;;13.40;2.57;;;;;;;7.13;100.00;101744.75;4964282;28;20212;-70
2024/01/23 09:58:36;;;;;;;7.43;1.60;;;;;;;7.23;100.00;101743.50;4968113;28;20210;-71
2024/01/23 10:01:03;;;;;;;13.77;1.90;;;;;;;7.37;100.00;101759.97;4967797;28;20704;-70
2024/01/23 10:03:36;;;;;;;6.43;1.43;;;;;;;7.44;100.00;101751.50;4968432;28;20542;-69
2024/01/23 10:06:04;;;;;;;10.60;1.57;;;;;;;7.48;100.00;101737.66;4962077;28;20208;-70
2024/01/23 10:08:30;;;;;;;11.20;1.90;;;;;;;7.39;100.00;101739.84;4968433;28;20212;-72
2024/01/23 10:11:00;;;;;;;6.17;1.67;;;;;;;7.48;100.00;101741.19;4962956;28;20281;-69
2024/01/23 10:13:27;;;;;;;5.67;1.73;;;;;;;7.66;100.00;101740.25;4966910;28;20322;-67
2024/01/23 10:15:54;;;;;;;11.47;2.57;;;;;;;7.76;100.00;101735.47;4967761;28;20205;-69
2024/01/23 10:18:22;;;;;;;7.60;1.80;;;;;;;7.74;100.00;101731.88;4966456;28;20252;-69
2024/01/23 10:20:52;;;;;;;8.57;2.03;;;;;;;7.78;100.00;101740.81;4963304;28;20740;-71
2024/01/23 10:23:19;;;;;;;10.17;2.33;;;;;;;7.78;100.00;101748.72;4965977;28;20307;-69
2024/01/23 10:25:45;;;;;;;6.57;1.50;;;;;;;7.75;100.00;101745.97;4967229;28;20248;-69
2024/01/23 10:28:13;;;;;;;5.97;1.43;;;;;;;7.81;100.00;101735.69;4966117;28;20202;-70
2024/01/23 10:30:40;;;;;;;7.43;1.80;;;;;;;8.07;100.00;101735.16;4956948;28;20502;-68
2024/01/23 10:33:08;;;;;;;9.80;2.03;;;;;;;8.24;100.00;101740.25;4968485;28;20229;-69
2024/01/23 10:35:35;;;;;;;11.43;2.10;;;;;;;8.40;100.00;101734.84;4970951;28;20738;-68
2024/01/23 10:38:05;;;;;;;7.67;1.70;;;;;;;8.45;100.00;101738.63;4969667;28;20233;-66
2024/01/23 10:40:32;;;;;;;8.20;1.83;;;;;;;8.48;100.00;101736.09;4965653;28;20251;-67
2024/01/23 10:42:59;;;;;;;8.17;1.67;;;;;;;8.52;100.00;101750.34;4968320;28;20299;-71
2024/01/23 10:45:25;;;;;;;10.20;1.70;;;;;;;8.60;100.00;101749.81;4966573;28;20670;-67
2024/01/23 10:47:53;;;;;;;5.73;1.80;;;;;;;8.83;100.00;101755.19;4960024;28;20212;-67
2024/01/23 10:50:20;;;;;;;7.37;1.87;;;;;;;8.93;100.00;101746.81;4967120;28;20208;-69
2024/01/23 10:52:48;;;;;;;6.40;1.63;;;;;;;8.99;100.00;101758.53;4968822;28;20241;-66
2024/01/23 10:55:19;;;;;;;12.37;1.80;;;;;;;9.09;100.00;101759.81;4963230;28;20213;-69
2024/01/23 10:57:47;;;;;;;7.57;1.70;;;;;;;9.16;100.00;101763.59;4967726;28;20289;-69
2024/01/23 11:00:17;;;;;;;6.90;1.50;;;;;;;9.18;100.00;101760.19;4965124;28;20202;-69
2024/01/23 11:02:58;;;;;;;8.87;2.07;;;;;;;9.39;100.00;101763.72;4960842;28;20312;-69
2024/01/23 11:05:29;;;;;;;4.83;1.60;;;;;;;9.51;100.00;101760.66;4967693;28;20216;-70
2024/01/23 11:08:01;;;;;;;9.77;1.57;;;;;;;9.76;100.00;101764.25;4961572;28;20695;-70
2024/01/23 11:10:48;;;;;;;7.40;1.57;;;;;;;9.81;100.00;101771.53;4960512;28;20266;-69
2024/01/23 11:13:28;;;;;;;7.97;1.37;;;;;;;9.62;100.00;101753.16;4967891;28;20230;-69
2024/01/23 11:15:54;;;;;;;4.73;1.50;;;;;;;9.46;100.00;101779.81;4964382;28;20237;-70
2024/01/23 11:18:29;;;;;;;9.07;2.00;;;;;;;9.36;100.00;101782.09;4948169;28;20214;-69
2024/01/23 11:21:06;;;;;;;5.00;1.60;;;;;;;9.28;100.00;101778.25;4953436;28;20641;-70
2024/01/23 11:23:43;;;;;;;8.63;2.00;;;;;;;8.97;100.00;101781.34;4955129;28;20213;-69